createdAt,value
2023-04-29T00:02:14.405Z,5.16
2023-04-29T00:04:45.539Z,5.14
2023-04-29T00:07:18.575Z,5.12
2023-04-29T00:09:51.519Z,5.09
2023-04-29T00:12:24.656Z,5.08
2023-04-29T00:14:58.208Z,5.05
2023-04-29T00:17:35.121Z,5.04
2023-04-29T00:20:10.782Z,5.02
2023-04-29T00:22:44.172Z,5.00
2023-04-29T00:25:17.729Z,5.00
2023-04-29T00:27:50.345Z,5.00
2023-04-29T00:30:23.661Z,4.98
2023-04-29T00:32:56.425Z,4.97
2023-04-29T00:35:29.214Z,4.95
2023-04-29T00:38:01.522Z,4.94
2023-04-29T00:40:34.343Z,4.96
2023-04-29T00:43:08.042Z,4.95
2023-04-29T00:45:41.222Z,4.94
2023-04-29T00:48:15.523Z,4.95
2023-04-29T00:50:46.793Z,4.94
2023-04-29T00:53:20.166Z,4.94
2023-04-29T00:56:02.159Z,4.94
2023-04-29T00:58:36.750Z,4.93
2023-04-29T01:01:10.516Z,4.92
2023-04-29T01:03:44.064Z,4.93
2023-04-29T01:06:32.422Z,4.93
2023-04-29T01:09:22.384Z,4.94
2023-04-29T01:12:08.686Z,4.94
2023-04-29T01:14:45.554Z,4.97
2023-04-29T01:17:24.284Z,4.98
2023-04-29T01:20:00.467Z,4.98
2023-04-29T01:22:35.019Z,5.00
2023-04-29T01:25:10.154Z,5.02
2023-04-29T01:28:15.460Z,5.03
2023-04-29T01:31:02.312Z,5.04
2023-04-29T01:33:43.935Z,5.05
2023-04-29T01:36:32.958Z,5.05
2023-04-29T01:39:16.439Z,5.06
2023-04-29T01:42:00.148Z,5.06
2023-04-29T01:44:38.391Z,5.06
2023-04-29T01:47:16.096Z,5.05
2023-04-29T01:49:56.355Z,5.06
2023-04-29T01:52:30.407Z,5.05
2023-04-29T01:55:05.091Z,5.07
2023-04-29T01:57:46.913Z,5.05
2023-04-29T02:00:30.799Z,5.05
2023-04-29T02:03:03.812Z,5.05
2023-04-29T02:05:43.246Z,5.05
2023-04-29T02:08:15.786Z,5.05
2023-04-29T02:10:57.642Z,5.07
2023-04-29T02:13:43.714Z,5.05
2023-04-29T02:16:17.751Z,5.04
2023-04-29T02:19:01.897Z,5.03
2023-04-29T02:21:35.405Z,5.04
2023-04-29T02:24:10.272Z,5.06
2023-04-29T02:26:45.575Z,5.06
2023-04-29T02:29:20.269Z,5.07
2023-04-29T02:31:53.285Z,5.08
2023-04-29T02:34:26.041Z,5.08
2023-04-29T02:37:03.804Z,5.09
2023-04-29T02:39:37.311Z,5.09
2023-04-29T02:42:10.006Z,5.09
2023-04-29T02:44:42.775Z,5.08
2023-04-29T02:47:17.722Z,5.09
2023-04-29T02:49:51.177Z,5.09
2023-04-29T02:52:25.234Z,5.08
2023-04-29T02:54:58.073Z,5.09
2023-04-29T02:57:32.767Z,5.10
2023-04-29T03:00:10.314Z,5.09
2023-04-29T03:02:43.721Z,5.09
2023-04-29T03:05:19.744Z,5.09
2023-04-29T03:07:52.399Z,5.08
2023-04-29T03:10:25.963Z,5.08
2023-04-29T03:12:59.567Z,5.07
2023-04-29T03:15:32.162Z,5.07
2023-04-29T03:18:05.487Z,5.06
2023-04-29T03:20:39.699Z,5.06
2023-04-29T03:23:13.293Z,5.06
2023-04-29T03:25:46.734Z,5.06
2023-04-29T03:28:19.476Z,5.07
2023-04-29T03:30:52.044Z,5.07
2023-04-29T03:33:24.835Z,5.08
2023-04-29T03:36:00.012Z,5.08
2023-04-29T03:38:56.920Z,5.09
2023-04-29T03:41:29.898Z,5.10
2023-04-29T03:44:03.225Z,5.12
2023-04-29T03:46:38.489Z,5.13
2023-04-29T03:49:11.276Z,5.15
2023-04-29T03:51:47.042Z,5.17
2023-04-29T03:54:22.255Z,5.20
2023-04-29T03:56:56.479Z,5.22
2023-04-29T03:59:29.600Z,5.26
2023-04-29T04:02:02.900Z,5.29
2023-04-29T04:04:37.825Z,5.31
2023-04-29T04:07:11.823Z,5.35
2023-04-29T04:10:04.417Z,5.43
2023-04-29T04:12:37.402Z,5.49
2023-04-29T04:15:12.122Z,5.60
2023-04-29T04:17:47.639Z,5.78
2023-04-29T04:20:23.104Z,6.05
2023-04-29T04:22:56.003Z,6.50
2023-04-29T04:25:31.538Z,6.98
2023-04-29T04:28:15.144Z,7.53
2023-04-29T04:31:04.450Z,8.07
2023-04-29T04:33:37.734Z,8.63
2023-04-29T04:36:13.722Z,9.22
2023-04-29T04:38:46.979Z,9.92
2023-04-29T04:41:20.003Z,10.46
2023-04-29T04:43:54.118Z,11.09
2023-04-29T04:46:52.145Z,12.15
2023-04-29T04:49:37.653Z,13.03
2023-04-29T04:52:12.057Z,13.64
2023-04-29T04:54:48.266Z,13.56
2023-04-29T04:57:25.226Z,13.62
2023-04-29T05:00:00.385Z,14.01
2023-04-29T05:02:33.145Z,14.31
2023-04-29T05:05:07.308Z,14.63
2023-04-29T05:07:42.014Z,14.24
2023-04-29T05:10:18.014Z,14.43
2023-04-29T05:12:54.662Z,14.33
2023-04-29T05:15:27.620Z,13.87
2023-04-29T05:18:02.056Z,13.65
2023-04-29T05:20:35.293Z,13.52
2023-04-29T05:23:09.282Z,13.40
2023-04-29T05:25:48.632Z,13.43
2023-04-29T05:28:23.059Z,13.64
2023-04-29T05:30:59.524Z,13.92
2023-04-29T05:33:32.891Z,14.11
2023-04-29T05:36:07.265Z,14.25
2023-04-29T05:38:40.592Z,14.57
2023-04-29T05:41:15.137Z,14.57
2023-04-29T05:43:53.445Z,14.41
2023-04-29T05:46:26.764Z,14.39
2023-04-29T05:48:59.823Z,14.43
2023-04-29T05:51:32.659Z,14.07
2023-04-29T05:54:06.506Z,13.82
2023-04-29T05:56:39.844Z,13.73
2023-04-29T05:59:12.634Z,13.96
2023-04-29T06:01:45.936Z,14.49
2023-04-29T06:04:22.091Z,14.96
2023-04-29T06:07:10.704Z,14.96
2023-04-29T06:10:07.847Z,14.79
2023-04-29T06:12:41.057Z,14.52
2023-04-29T06:15:15.190Z,14.22
2023-04-29T06:17:50.709Z,13.87
2023-04-29T06:20:23.366Z,13.75
2023-04-29T06:22:55.663Z,13.56
2023-04-29T06:25:31.987Z,13.45
2023-04-29T06:28:08.828Z,13.24
2023-04-29T06:30:42.582Z,13.21
2023-04-29T06:36:01.714Z,13.23
2023-04-29T06:39:03.928Z,13.45
2023-04-29T06:41:47.522Z,13.87
2023-04-29T06:44:39.301Z,14.89
2023-04-29T06:47:31.225Z,16.27
2023-04-29T06:50:13.481Z,16.81
2023-04-29T06:52:46.779Z,16.73
2023-04-29T06:55:21.222Z,16.42
2023-04-29T06:57:53.684Z,16.14
2023-04-29T07:00:26.180Z,16.62
2023-04-29T07:03:00.768Z,17.23
2023-04-29T07:05:35.537Z,17.05
2023-04-29T07:08:08.864Z,16.87
2023-04-29T07:10:41.537Z,16.88
2023-04-29T07:13:14.133Z,16.83
2023-04-29T07:15:47.838Z,16.71
2023-04-29T07:18:21.330Z,16.67
2023-04-29T07:20:56.121Z,16.59
2023-04-29T07:23:28.811Z,16.62
2023-04-29T07:26:01.146Z,16.81
2023-04-29T07:28:33.927Z,16.96
2023-04-29T07:31:08.117Z,17.06
2023-04-29T07:33:41.934Z,17.03
2023-04-29T07:36:15.613Z,16.96
2023-04-29T07:38:49.736Z,17.01
2023-04-29T07:41:24.913Z,16.88
2023-04-29T07:43:57.867Z,16.69
2023-04-29T07:46:33.425Z,16.67
2023-04-29T07:49:07.212Z,16.57
2023-04-29T07:51:42.213Z,16.90
2023-04-29T07:54:17.328Z,17.70
2023-04-29T07:56:49.569Z,18.36
2023-04-29T07:59:22.020Z,18.14
2023-04-29T08:01:54.784Z,17.81
2023-04-29T08:04:27.947Z,17.55
2023-04-29T08:07:09.683Z,17.29
2023-04-29T08:09:42.082Z,17.08
2023-04-29T08:12:17.454Z,17.06
2023-04-29T08:14:50.428Z,17.06
2023-04-29T08:17:23.208Z,17.06
2023-04-29T08:19:56.147Z,17.07
2023-04-29T08:22:28.506Z,17.01
2023-04-29T08:25:01.156Z,17.03
2023-04-29T08:27:33.556Z,17.06
2023-04-29T08:30:07.514Z,17.09
2023-04-29T08:32:38.276Z,17.14
2023-04-29T08:35:12.582Z,17.23
2023-04-29T08:37:44.819Z,17.37
2023-04-29T08:40:18.003Z,17.53
2023-04-29T08:42:51.680Z,17.79
2023-04-29T08:45:26.639Z,18.09
2023-04-29T08:48:00.802Z,18.48
2023-04-29T08:50:38.716Z,18.86
2023-04-29T08:53:13.009Z,19.16
2023-04-29T08:55:47.156Z,19.29
2023-04-29T08:58:19.654Z,19.38
2023-04-29T09:00:53.702Z,19.36
2023-04-29T09:03:33.193Z,19.31
2023-04-29T09:06:07.926Z,19.24
2023-04-29T09:08:40.704Z,19.39
2023-04-29T09:11:14.123Z,19.57
2023-04-29T09:13:46.436Z,19.54
2023-04-29T09:16:21.659Z,19.57
2023-04-29T09:18:56.971Z,19.53
2023-04-29T09:21:31.847Z,19.47
2023-04-29T09:24:05.053Z,19.38
2023-04-29T09:26:44.442Z,19.19
2023-04-29T09:29:18.676Z,19.02
2023-04-29T09:31:53.891Z,18.82
2023-04-29T09:34:38.656Z,18.84
2023-04-29T09:37:27.776Z,18.73
2023-04-29T09:40:00.288Z,18.67
2023-04-29T09:42:43.260Z,18.62
2023-04-29T09:45:33.371Z,18.58
2023-04-29T09:48:10.149Z,18.63
2023-04-29T09:50:45.109Z,18.79
2023-04-29T09:53:31.991Z,18.99
2023-04-29T09:56:05.786Z,19.22
2023-04-29T09:58:40.653Z,19.59
2023-04-29T10:01:18.712Z,20.09
2023-04-29T10:03:51.642Z,20.37
2023-04-29T10:06:25.531Z,20.64
2023-04-29T10:08:58.271Z,20.93
2023-04-29T10:11:31.698Z,20.82
2023-04-29T10:14:06.527Z,20.90
2023-04-29T10:16:46.808Z,21.12
2023-04-29T10:19:49.023Z,21.22
2023-04-29T10:22:30.970Z,21.40
2023-04-29T10:25:04.805Z,21.73
2023-04-29T10:27:39.350Z,21.63
2023-04-29T10:30:17.947Z,21.45
2023-04-29T10:32:53.006Z,21.01
2023-04-29T10:35:26.466Z,20.96
2023-04-29T10:38:04.008Z,21.09
2023-04-29T10:40:44.234Z,21.22
2023-04-29T10:43:17.134Z,21.32
2023-04-29T10:45:51.465Z,21.31
2023-04-29T10:48:25.708Z,21.40
2023-04-29T10:51:05.964Z,21.36
2023-04-29T10:53:59.573Z,21.29
2023-04-29T10:56:50.484Z,21.14
2023-04-29T10:59:44.994Z,21.16
2023-04-29T11:02:17.368Z,21.04
2023-04-29T11:05:12.696Z,20.83
2023-04-29T11:07:44.711Z,21.09
2023-04-29T11:10:18.290Z,21.33
2023-04-29T11:12:49.069Z,21.67
2023-04-29T11:15:25.110Z,21.79
2023-04-29T11:18:03.536Z,21.84
2023-04-29T11:21:12.407Z,21.63
2023-04-29T11:23:45.784Z,21.60
2023-04-29T11:26:20.411Z,21.47
2023-04-29T11:28:55.205Z,21.21
2023-04-29T11:31:34.423Z,20.91
2023-04-29T11:34:08.503Z,20.66
2023-04-29T11:36:40.969Z,20.56
2023-04-29T11:39:13.535Z,20.42
2023-04-29T11:41:45.834Z,20.21
2023-04-29T11:44:22.747Z,20.11
2023-04-29T11:47:02.636Z,20.03
2023-04-29T11:49:37.542Z,20.08
2023-04-29T11:52:11.427Z,20.00
2023-04-29T11:54:45.099Z,19.85
2023-04-29T11:57:18.746Z,19.71
2023-04-29T11:59:51.105Z,19.65
2023-04-29T12:02:30.641Z,19.58
2023-04-29T12:05:07.748Z,19.66
2023-04-29T12:07:41.707Z,19.64
2023-04-29T12:10:14.871Z,19.53
2023-04-29T12:12:47.628Z,19.48
2023-04-29T12:15:20.804Z,19.36
2023-04-29T12:17:53.392Z,19.29
2023-04-29T12:20:26.338Z,19.53
2023-04-29T12:23:09.222Z,19.93
2023-04-29T12:25:43.140Z,20.07
2023-04-29T12:28:17.278Z,20.16
2023-04-29T12:30:52.046Z,20.34
2023-04-29T12:33:27.150Z,20.45
2023-04-29T12:36:00.781Z,20.50
2023-04-29T12:38:33.899Z,20.53
2023-04-29T12:41:08.164Z,20.31
2023-04-29T12:43:41.067Z,20.38
2023-04-29T12:46:23.752Z,20.38
2023-04-29T12:48:56.163Z,20.49
2023-04-29T12:51:28.788Z,20.48
2023-04-29T12:54:03.879Z,20.64
2023-04-29T12:56:36.360Z,20.62
2023-04-29T12:59:10.395Z,20.40
2023-04-29T13:01:43.257Z,20.19
2023-04-29T13:04:16.529Z,20.01
2023-04-29T13:06:49.489Z,19.94
2023-04-29T13:09:22.366Z,19.93
2023-04-29T13:11:54.716Z,19.92
2023-04-29T13:14:29.682Z,19.86
2023-04-29T13:17:02.563Z,19.79
2023-04-29T13:19:49.504Z,19.70
2023-04-29T13:22:24.681Z,19.49
2023-04-29T13:24:57.137Z,19.25
2023-04-29T13:27:31.950Z,19.34
2023-04-29T13:30:04.784Z,19.47
2023-04-29T13:32:45.872Z,19.44
2023-04-29T13:35:21.600Z,19.37
2023-04-29T13:37:54.025Z,19.22
2023-04-29T13:40:28.010Z,19.13
2023-04-29T13:43:05.868Z,19.12
2023-04-29T13:45:42.752Z,19.10
2023-04-29T13:48:50.270Z,19.04
2023-04-29T14:04:10.049Z,19.17
2023-04-29T14:06:43.953Z,19.32
2023-04-29T14:09:17.110Z,19.38
2023-04-29T14:11:50.883Z,19.36
2023-04-29T14:14:24.616Z,19.28
2023-04-29T14:16:56.839Z,19.19
2023-04-29T14:19:29.225Z,19.15
2023-04-29T14:22:01.558Z,19.12
2023-04-29T14:24:34.349Z,19.18
2023-04-29T14:27:06.903Z,19.28
2023-04-29T14:29:39.481Z,19.27
2023-04-29T14:32:11.753Z,19.37
2023-04-29T14:34:44.374Z,19.40
2023-04-29T14:37:16.659Z,19.41
2023-04-29T14:39:49.915Z,19.39
2023-04-29T14:42:22.400Z,19.41
2023-04-29T14:44:55.614Z,19.41
2023-04-29T14:47:29.102Z,19.35
2023-04-29T14:50:02.513Z,19.28
2023-04-29T14:52:34.790Z,19.18
2023-04-29T14:55:08.275Z,19.12
2023-04-29T14:57:40.559Z,19.07
2023-04-29T15:00:15.773Z,18.97
2023-04-29T15:02:50.109Z,18.85
2023-04-29T15:05:24.128Z,18.81
2023-04-29T15:08:00.440Z,18.80
2023-04-29T15:10:32.960Z,18.74
2023-04-29T15:13:07.534Z,18.68
2023-04-29T15:15:41.716Z,18.62
2023-04-29T15:18:14.345Z,18.53
2023-04-29T15:20:47.020Z,18.47
2023-04-29T15:23:21.700Z,18.43
2023-04-29T15:25:56.696Z,18.37
2023-04-29T15:28:31.211Z,18.30
2023-04-29T15:31:05.922Z,18.27
2023-04-29T15:33:40.777Z,18.19
2023-04-29T15:36:13.548Z,18.14
2023-04-29T15:38:46.068Z,18.11
2023-04-29T15:41:19.922Z,18.04
2023-04-29T15:43:52.597Z,17.98
2023-04-29T15:46:25.741Z,17.96
2023-04-29T15:49:00.730Z,17.95
2023-04-29T15:51:33.300Z,17.91
2023-04-29T15:54:08.406Z,17.88
2023-04-29T15:56:41.736Z,17.81
2023-04-29T15:59:15.953Z,17.72
2023-04-29T16:01:46.890Z,17.61
2023-04-29T16:04:21.668Z,17.51
2023-04-29T16:06:55.223Z,17.43
2023-04-29T16:09:28.323Z,17.36
2023-04-29T16:12:01.045Z,17.31
2023-04-29T16:14:33.779Z,17.27
2023-04-29T16:17:07.106Z,17.22
2023-04-29T16:19:40.490Z,17.17
2023-04-29T16:22:15.906Z,17.12
2023-04-29T16:24:51.268Z,17.06
2023-04-29T16:27:25.067Z,17.01
2023-04-29T16:30:01.325Z,16.94
2023-04-29T16:32:35.353Z,16.88
2023-04-29T16:35:08.643Z,16.81
2023-04-29T16:37:41.752Z,16.75
2023-04-29T16:40:17.125Z,16.70
2023-04-29T16:42:54.218Z,16.64
2023-04-29T16:45:27.913Z,16.60
2023-04-29T16:48:01.993Z,16.53
2023-04-29T16:50:36.648Z,16.51
2023-04-29T16:53:09.165Z,16.47
2023-04-29T16:55:41.680Z,16.44
2023-04-29T16:58:14.116Z,16.40
2023-04-29T17:00:47.116Z,16.35
2023-04-29T17:03:20.085Z,16.28
2023-04-29T17:05:54.496Z,16.23
2023-04-29T17:08:27.296Z,16.17
2023-04-29T17:11:00.126Z,16.11
2023-04-29T17:13:32.569Z,16.06
2023-04-29T17:16:05.276Z,16.01
2023-04-29T17:18:38.040Z,15.96
2023-04-29T17:21:10.400Z,15.89
2023-04-29T17:23:42.767Z,15.83
2023-04-29T17:26:15.499Z,15.79
2023-04-29T17:28:48.080Z,15.73
2023-04-29T17:31:25.548Z,15.67
2023-04-29T17:34:07.304Z,15.60
2023-04-29T17:36:39.609Z,15.52
2023-04-29T17:39:13.686Z,15.45
2023-04-29T17:41:46.698Z,15.39
2023-04-29T17:44:21.871Z,15.33
2023-04-29T17:46:56.508Z,15.26
2023-04-29T17:49:29.006Z,15.21
2023-04-29T17:52:04.335Z,15.17
2023-04-29T17:54:39.548Z,15.12
2023-04-29T17:57:12.252Z,15.08
2023-04-29T17:59:45.032Z,15.05
2023-04-29T18:02:17.327Z,15.03
2023-04-29T18:04:57.298Z,14.96
2023-04-29T18:07:29.658Z,14.91
2023-04-29T18:10:02.295Z,14.88
2023-04-29T18:12:34.684Z,14.84
2023-04-29T18:15:09.958Z,14.81
2023-04-29T18:17:43.107Z,14.79
2023-04-29T18:20:17.590Z,14.75
2023-04-29T18:22:51.347Z,14.72
2023-04-29T18:25:24.164Z,14.69
2023-04-29T18:28:07.709Z,14.65
2023-04-29T18:30:51.152Z,14.61
2023-04-29T18:33:26.737Z,14.57
2023-04-29T18:35:59.695Z,14.53
2023-04-29T18:38:32.075Z,14.49
2023-04-29T18:41:08.797Z,14.46
2023-04-29T18:43:41.457Z,14.43
2023-04-29T18:46:14.186Z,14.38
2023-04-29T18:48:46.890Z,14.33
2023-04-29T18:51:20.173Z,14.29
2023-04-29T18:53:52.740Z,14.24
2023-04-29T18:56:24.999Z,14.20
2023-04-29T18:58:57.796Z,14.18
2023-04-29T19:01:30.538Z,14.16
2023-04-29T19:04:04.736Z,14.11
2023-04-29T19:06:37.731Z,14.08
2023-04-29T19:09:11.297Z,14.04
2023-04-29T19:11:44.025Z,13.99
2023-04-29T19:14:16.548Z,13.96
2023-04-29T19:16:48.984Z,13.93
2023-04-29T19:19:21.928Z,13.89
2023-04-29T19:21:54.848Z,13.88
2023-04-29T19:24:27.372Z,13.85
2023-04-29T19:27:00.117Z,13.83
2023-04-29T19:29:33.034Z,13.80
2023-04-29T19:32:05.611Z,13.79
2023-04-29T19:34:38.100Z,13.75
2023-04-29T19:37:10.976Z,13.73
2023-04-29T19:39:43.369Z,13.69
2023-04-29T19:42:15.986Z,13.65
2023-04-29T19:44:48.507Z,13.61
2023-04-29T19:47:24.218Z,13.55
2023-04-29T19:49:57.110Z,13.51
2023-04-29T19:52:30.083Z,13.48
2023-04-29T19:55:02.640Z,13.44
2023-04-29T19:57:35.559Z,13.40
2023-04-29T20:00:11.891Z,13.36
2023-04-29T20:02:45.125Z,13.33
2023-04-29T20:05:17.740Z,13.30
2023-04-29T20:07:50.207Z,13.27
2023-04-29T20:10:26.844Z,13.24
2023-04-29T20:13:01.928Z,13.21
2023-04-29T20:15:34.666Z,13.18
2023-04-29T20:18:07.339Z,13.15
2023-04-29T20:20:39.928Z,13.10
2023-04-29T20:23:12.521Z,13.07
2023-04-29T20:25:45.343Z,13.04
2023-04-29T20:28:17.930Z,13.01
2023-04-29T20:30:54.943Z,12.97
2023-04-29T20:33:27.954Z,12.97
2023-04-29T20:36:08.028Z,12.98
2023-04-29T20:38:49.421Z,12.96
2023-04-29T20:41:22.542Z,12.94
2023-04-29T20:43:55.985Z,12.90
2023-04-29T20:46:33.846Z,12.88
2023-04-29T20:49:06.919Z,12.87
2023-04-29T20:51:39.319Z,12.87
2023-04-29T20:54:12.194Z,12.83
2023-04-29T20:56:44.796Z,12.80
2023-04-29T20:59:17.557Z,12.78
2023-04-29T21:01:52.535Z,12.75
2023-04-29T21:04:26.425Z,12.72
2023-04-29T21:06:57.492Z,12.69
2023-04-29T21:09:30.009Z,12.65
2023-04-29T21:12:02.974Z,12.62
2023-04-29T21:14:35.709Z,12.61
2023-04-29T21:17:08.139Z,12.58
2023-04-29T21:19:40.707Z,12.57
2023-04-29T21:22:13.413Z,12.54
2023-04-29T21:24:46.337Z,12.53
2023-04-29T21:27:19.733Z,12.49
2023-04-29T21:29:52.151Z,12.46
2023-04-29T21:32:25.833Z,12.43
2023-04-29T21:34:58.237Z,12.38
2023-04-29T21:37:32.109Z,12.32
2023-04-29T21:40:04.932Z,12.25
2023-04-29T21:42:38.493Z,12.19
2023-04-29T21:45:15.132Z,12.13
2023-04-29T21:47:48.846Z,12.07
2023-04-29T21:50:22.798Z,11.98
2023-04-29T21:52:55.808Z,11.89
2023-04-29T21:55:28.263Z,11.83
2023-04-29T21:58:00.879Z,11.80
2023-04-29T22:00:36.391Z,11.75
2023-04-29T22:03:09.873Z,11.70
2023-04-29T22:05:42.636Z,11.66
2023-04-29T22:08:14.943Z,11.65
2023-04-29T22:10:47.427Z,11.65
2023-04-29T22:13:19.693Z,11.65
2023-04-29T22:15:53.890Z,11.66
2023-04-29T22:18:26.721Z,11.67
2023-04-29T22:20:59.579Z,11.68
2023-04-29T22:23:32.237Z,11.69
2023-04-29T22:26:05.099Z,11.66
2023-04-29T22:28:37.799Z,11.63
2023-04-29T22:31:10.440Z,11.61
2023-04-29T22:33:42.643Z,11.59
2023-04-29T22:36:15.003Z,11.57
2023-04-29T22:38:49.200Z,11.56
2023-04-29T22:41:19.927Z,11.54
2023-04-29T22:43:57.475Z,11.53
2023-04-29T22:46:30.817Z,11.53
2023-04-29T22:49:03.858Z,11.54
2023-04-29T22:51:36.761Z,11.55
2023-04-29T22:54:09.882Z,11.54
2023-04-29T22:56:42.279Z,11.51
2023-04-29T22:59:15.465Z,11.48
2023-04-29T23:01:48.013Z,11.42
2023-04-29T23:04:20.976Z,11.40
2023-04-29T23:06:53.295Z,11.37
2023-04-29T23:09:26.320Z,11.37
2023-04-29T23:11:59.682Z,11.35
2023-04-29T23:14:32.360Z,11.33
2023-04-29T23:17:05.038Z,11.32
2023-04-29T23:19:37.767Z,11.30
2023-04-29T23:22:10.834Z,11.25
2023-04-29T23:24:43.602Z,11.21
2023-04-29T23:27:16.355Z,11.16
2023-04-29T23:29:49.533Z,11.15
2023-04-29T23:32:25.418Z,11.15
2023-04-29T23:34:57.569Z,11.16
2023-04-29T23:37:29.796Z,11.14
2023-04-29T23:40:02.166Z,11.14
2023-04-29T23:42:34.958Z,11.14
2023-04-29T23:45:09.216Z,11.13
2023-04-29T23:47:40.134Z,11.13
2023-04-29T23:50:13.580Z,11.11
2023-04-29T23:52:46.448Z,11.11
2023-04-29T23:55:19.024Z,11.11
2023-04-29T23:57:51.481Z,11.12
